sensor_id;sensor_type;location;lat;lon;timestamp;pressure;altitude;pressure_sealevel;temperature;humidity
29169;BME280;16219;42.864;23.360;2024-01-15T00:00:31;95334.63;;;-4.84;100.00
29169;BME280;16219;42.864;23.360;2024-01-15T00:02:59;95333.16;;;-4.80;100.00
29169;BME280;16219;42.864;23.360;2024-01-15T00:05:26;95335.63;;;-4.85;100.00
29169;BME280;16219;42.864;23.360;2024-01-15T00:07:53;95350.41;;;-4.92;100.00
29169;BME280;16219;42.864;23.360;2024-01-15T00:10:20;95338.31;;;-4.92;100.00
29169;BME280;16219;42.864;23.360;2024-01-15T00:12:47;95345.69;;;-4.84;100.00
29169;BME280;16219;42.864;23.360;2024-01-15T00:15:14;95340.22;;;-4.87;100.00
29169;BME280;16219;42.864;23.360;2024-01-15T00:17:41;95334.84;;;-4.86;100.00
29169;BME280;16219;42.864;23.360;2024-01-15T00:20:10;95341.00;;;-4.98;100.00
29169;BME280;16219;42.864;23.360;2024-01-15T00:22:37;95346.47;;;-4.95;100.00
29169;BME280;16219;42.864;23.360;2024-01-15T00:25:05;95344.69;;;-4.94;100.00
29169;BME280;16219;42.864;23.360;2024-01-15T00:27:32;95331.28;;;-4.96;100.00
29169;BME280;16219;42.864;23.360;2024-01-15T00:29:59;95348.72;;;-4.98;100.00
29169;BME280;16219;42.864;23.360;2024-01-15T00:32:26;95348.16;;;-5.00;100.00
29169;BME280;16219;42.864;23.360;2024-01-15T00:34:53;95352.28;;;-4.99;100.00
29169;BME280;16219;42.864;23.360;2024-01-15T00:37:22;95345.69;;;-5.07;100.00
29169;BME280;16219;42.864;23.360;2024-01-15T00:39:49;95346.56;;;-5.02;100.00
29169;BME280;16219;42.864;23.360;2024-01-15T00:42:15;95331.94;;;-5.01;100.00
29169;BME280;16219;42.864;23.360;2024-01-15T00:44:42;95341.66;;;-5.03;100.00
29169;BME280;16219;42.864;23.360;2024-01-15T00:47:09;95343.78;;;-5.12;100.00
29169;BME280;16219;42.864;23.360;2024-01-15T00:49:36;95349.94;;;-5.13;100.00
29169;BME280;16219;42.864;23.360;2024-01-15T00:52:03;95357.84;;;-5.14;100.00
29169;BME280;16219;42.864;23.360;2024-01-15T00:54:32;95355.06;;;-5.24;100.00
29169;BME280;16219;42.864;23.360;2024-01-15T00:56:59;95356.84;;;-5.25;100.00
29169;BME280;16219;42.864;23.360;2024-01-15T00:59:26;95357.84;;;-5.26;100.00
29169;BME280;16219;42.864;23.360;2024-01-15T01:01:53;95354.97;;;-5.18;100.00
29169;BME280;16219;42.864;23.360;2024-01-15T01:04:20;95347.91;;;-5.11;100.00
29169;BME280;16219;42.864;23.360;2024-01-15T01:06:47;95348.69;;;-5.10;100.00
29169;BME280;16219;42.864;23.360;2024-01-15T01:09:14;95341.91;;;-5.05;100.00
29169;BME280;16219;42.864;23.360;2024-01-15T01:11:42;95334.72;;;-5.03;100.00
29169;BME280;16219;42.864;23.360;2024-01-15T01:14:09;95338.75;;;-5.07;100.00
29169;BME280;16219;42.864;23.360;2024-01-15T01:16:36;95342.66;;;-5.16;100.00
29169;BME280;16219;42.864;23.360;2024-01-15T01:19:04;95338.97;;;-5.20;100.00
29169;BME280;16219;42.864;23.360;2024-01-15T01:21:31;95333.81;;;-5.20;100.00
29169;BME280;16219;42.864;23.360;2024-01-15T01:23:58;95331.34;;;-5.15;100.00
29169;BME280;16219;42.864;23.360;2024-01-15T01:26:25;95330.81;;;-5.17;100.00
29169;BME280;16219;42.864;23.360;2024-01-15T01:28:54;95326.09;;;-5.43;100.00
29169;BME280;16219;42.864;23.360;2024-01-15T01:31:21;95319.28;;;-5.38;100.00
29169;BME280;16219;42.864;23.360;2024-01-15T01:33:48;95319.72;;;-5.29;100.00
29169;BME280;16219;42.864;23.360;2024-01-15T01:36:15;95314.38;;;-5.39;100.00
29169;BME280;16219;42.864;23.360;2024-01-15T01:38:41;95311.59;;;-5.26;100.00
29169;BME280;16219;42.864;23.360;2024-01-15T01:41:08;95306.91;;;-5.17;100.00
29169;BME280;16219;42.864;23.360;2024-01-15T01:43:35;95296.25;;;-5.21;100.00
29169;BME280;16219;42.864;23.360;2024-01-15T01:46:03;95306.56;;;-5.21;100.00
29169;BME280;16219;42.864;23.360;2024-01-15T01:48:31;95296.25;;;-5.21;100.00
29169;BME280;16219;42.864;23.360;2024-01-15T01:51:00;95305.19;;;-5.23;100.00
29169;BME280;16219;42.864;23.360;2024-01-15T01:53:29;95301.28;;;-5.26;100.00
29169;BME280;16219;42.864;23.360;2024-01-15T01:55:58;95293.00;;;-5.28;100.00
29169;BME280;16219;42.864;23.360;2024-01-15T01:58:27;95297.25;;;-5.34;100.00
29169;BME280;16219;42.864;23.360;2024-01-15T02:00:54;95293.00;;;-5.28;100.00
29169;BME280;16219;42.864;23.360;2024-01-15T02:03:23;95292.47;;;-5.30;100.00
29169;BME280;16219;42.864;23.360;2024-01-15T02:05:50;95292.81;;;-5.26;100.00
29169;BME280;16219;42.864;23.360;2024-01-15T02:08:18;95292.91;;;-5.33;100.00
29169;BME280;16219;42.864;23.360;2024-01-15T02:10:45;95291.88;;;-5.44;100.00
29169;BME280;16219;42.864;23.360;2024-01-15T02:13:12;95282.28;;;-5.37;100.00
29169;BME280;16219;42.864;23.360;2024-01-15T02:15:39;95285.06;;;-5.38;100.00
29169;BME280;16219;42.864;23.360;2024-01-15T02:18:07;95280.38;;;-5.30;100.00
29169;BME280;16219;42.864;23.360;2024-01-15T02:20:35;95269.53;;;-5.32;100.00
29169;BME280;16219;42.864;23.360;2024-01-15T02:23:08;95276.34;;;-5.37;100.00
29169;BME280;16219;42.864;23.360;2024-01-15T02:25:37;95256.91;;;-5.33;100.00
29169;BME280;16219;42.864;23.360;2024-01-15T02:28:06;95268.75;;;-5.32;100.00
29169;BME280;16219;42.864;23.360;2024-01-15T02:30:37;95260.94;;;-5.37;100.00
29169;BME280;16219;42.864;23.360;2024-01-15T02:33:05;95260.72;;;-5.47;100.00
29169;BME280;16219;42.864;23.360;2024-01-15T02:35:32;95254.13;;;-5.43;100.00
29169;BME280;16219;42.864;23.360;2024-01-15T02:38:02;95236.56;;;-5.46;100.00
29169;BME280;16219;42.864;23.360;2024-01-15T02:40:34;95224.16;;;-5.49;100.00
29169;BME280;16219;42.864;23.360;2024-01-15T02:43:01;95224.72;;;-5.59;100.00
29169;BME280;16219;42.864;23.360;2024-01-15T02:45:28;95223.81;;;-5.53;100.00
29169;BME280;16219;42.864;23.360;2024-01-15T02:47:56;95218.78;;;-5.48;100.00
29169;BME280;16219;42.864;23.360;2024-01-15T02:50:23;95216.34;;;-5.55;100.00
29169;BME280;16219;42.864;23.360;2024-01-15T02:52:51;95227.06;;;-5.58;100.00
29169;BME280;16219;42.864;23.360;2024-01-15T02:55:18;95223.63;;;-5.51;100.00
29169;BME280;16219;42.864;23.360;2024-01-15T02:57:46;95215.75;;;-5.57;100.00
29169;BME280;16219;42.864;23.360;2024-01-15T03:00:14;95224.94;;;-5.61;100.00
29169;BME280;16219;42.864;23.360;2024-01-15T03:02:43;95213.44;;;-5.82;100.00
29169;BME280;16219;42.864;23.360;2024-01-15T03:05:10;95227.28;;;-5.71;100.00
29169;BME280;16219;42.864;23.360;2024-01-15T03:07:39;95217.34;;;-5.56;100.00
29169;BME280;16219;42.864;23.360;2024-01-15T03:10:09;95216.78;;;-5.58;100.00
29169;BME280;16219;42.864;23.360;2024-01-15T03:12:37;95222.50;;;-5.56;100.00
29169;BME280;16219;42.864;23.360;2024-01-15T03:15:08;95219.47;;;-5.53;100.00
29169;BME280;16219;42.864;23.360;2024-01-15T03:17:35;95223.47;;;-5.57;100.00
29169;BME280;16219;42.864;23.360;2024-01-15T03:20:02;95220.91;;;-5.57;100.00
29169;BME280;16219;42.864;23.360;2024-01-15T03:22:29;95215.75;;;-5.57;100.00
29169;BME280;16219;42.864;23.360;2024-01-15T03:24:56;95214.22;;;-5.58;100.00
29169;BME280;16219;42.864;23.360;2024-01-15T03:27:23;95213.78;;;-5.55;100.00
29169;BME280;16219;42.864;23.360;2024-01-15T03:29:51;95212.31;;;-5.62;100.00
29169;BME280;16219;42.864;23.360;2024-01-15T03:32:19;95207.28;;;-5.57;100.00
29169;BME280;16219;42.864;23.360;2024-01-15T03:34:46;95209.75;;;-5.50;100.00
29169;BME280;16219;42.864;23.360;2024-01-15T03:37:15;95198.03;;;-5.46;100.00
29169;BME280;16219;42.864;23.360;2024-01-15T03:39:42;95208.31;;;-5.46;100.00
29169;BME280;16219;42.864;23.360;2024-01-15T03:42:09;95203.84;;;-5.51;100.00
29169;BME280;16219;42.864;23.360;2024-01-15T03:44:36;95209.66;;;-5.56;100.00
29169;BME280;16219;42.864;23.360;2024-01-15T03:47:04;95198.00;;;-5.58;100.00
29169;BME280;16219;42.864;23.360;2024-01-15T03:49:32;95200.03;;;-5.60;100.00
29169;BME280;16219;42.864;23.360;2024-01-15T03:51:59;95204.72;;;-5.57;100.00
29169;BME280;16219;42.864;23.360;2024-01-15T03:54:26;95203.38;;;-5.60;100.00
29169;BME280;16219;42.864;23.360;2024-01-15T03:56:53;95195.78;;;-5.55;100.00
29169;BME280;16219;42.864;23.360;2024-01-15T03:59:20;95195.56;;;-5.53;100.00
29169;BME280;16219;42.864;23.360;2024-01-15T04:01:50;95196.91;;;-5.50;100.00
29169;BME280;16219;42.864;23.360;2024-01-15T04:04:18;95201.47;;;-5.53;100.00
29169;BME280;16219;42.864;23.360;2024-01-15T04:06:46;95197.91;;;-5.51;100.00
29169;BME280;16219;42.864;23.360;2024-01-15T04:09:13;95197.44;;;-5.48;100.00
29169;BME280;16219;42.864;23.360;2024-01-15T04:11:40;95190.22;;;-5.51;100.00
29169;BME280;16219;42.864;23.360;2024-01-15T04:14:07;95189.75;;;-5.48;100.00
29169;BME280;16219;42.864;23.360;2024-01-15T04:16:34;95188.53;;;-5.46;100.00
29169;BME280;16219;42.864;23.360;2024-01-15T04:19:01;95187.06;;;-5.42;100.00
29169;BME280;16219;42.864;23.360;2024-01-15T04:21:28;95183.72;;;-5.42;100.00
29169;BME280;16219;42.864;23.360;2024-01-15T04:23:56;95178.13;;;-5.39;100.00
29169;BME280;16219;42.864;23.360;2024-01-15T04:26:23;95180.22;;;-5.36;100.00
29169;BME280;16219;42.864;23.360;2024-01-15T04:28:50;95162.25;;;-5.48;100.00
29169;BME280;16219;42.864;23.360;2024-01-15T04:31:22;95171.19;;;-5.39;100.00
29169;BME280;16219;42.864;23.360;2024-01-15T04:33:49;95173.44;;;-5.31;100.00
29169;BME280;16219;42.864;23.360;2024-01-15T04:36:16;95169.03;;;-5.18;100.00
29169;BME280;16219;42.864;23.360;2024-01-15T04:38:43;95167.91;;;-5.11;100.00
29169;BME280;16219;42.864;23.360;2024-01-15T04:41:12;95159.28;;;-5.05;100.00
29169;BME280;16219;42.864;23.360;2024-01-15T04:43:40;95155.13;;;-4.94;100.00
29169;BME280;16219;42.864;23.360;2024-01-15T04:46:07;95150.75;;;-4.93;100.00
29169;BME280;16219;42.864;23.360;2024-01-15T04:48:34;95148.84;;;-4.86;100.00
29169;BME280;16219;42.864;23.360;2024-01-15T04:51:04;95159.16;;;-4.98;100.00
29169;BME280;16219;42.864;23.360;2024-01-15T04:53:31;95167.19;;;-4.94;100.00
29169;BME280;16219;42.864;23.360;2024-01-15T04:55:58;95158.66;;;-4.83;100.00
29169;BME280;16219;42.864;23.360;2024-01-15T04:58:26;95164.09;;;-4.68;100.00
29169;BME280;16219;42.864;23.360;2024-01-15T05:00:53;95164.25;;;-4.74;100.00
29169;BME280;16219;42.864;23.360;2024-01-15T05:03:21;95164.44;;;-4.76;100.00
29169;BME280;16219;42.864;23.360;2024-01-15T05:05:48;95163.47;;;-4.75;100.00
29169;BME280;16219;42.864;23.360;2024-01-15T05:08:16;95163.22;;;-4.73;100.00
29169;BME280;16219;42.864;23.360;2024-01-15T05:10:43;95162.97;;;-4.72;100.00
29169;BME280;16219;42.864;23.360;2024-01-15T05:13:10;95159.63;;;-4.72;100.00
29169;BME280;16219;42.864;23.360;2024-01-15T05:15:39;95161.50;;;-4.68;100.00
29169;BME280;16219;42.864;23.360;2024-01-15T05:18:06;95166.66;;;-4.68;100.00
29169;BME280;16219;42.864;23.360;2024-01-15T05:20:33;95150.69;;;-4.70;100.00
29169;BME280;16219;42.864;23.360;2024-01-15T05:23:00;95154.41;;;-4.78;100.00
29169;BME280;16219;42.864;23.360;2024-01-15T05:25:27;95154.16;;;-4.76;100.00
29169;BME280;16219;42.864;23.360;2024-01-15T05:27:54;95161.88;;;-4.76;100.00
29169;BME280;16219;42.864;23.360;2024-01-15T05:30:21;95147.66;;;-4.67;100.00
29169;BME280;16219;42.864;23.360;2024-01-15T05:32:50;95136.06;;;-4.53;100.00
29169;BME280;16219;42.864;23.360;2024-01-15T05:35:17;95128.50;;;-4.42;100.00
29169;BME280;16219;42.864;23.360;2024-01-15T05:37:45;95128.50;;;-4.42;100.00
29169;BME280;16219;42.864;23.360;2024-01-15T05:40:13;95124.94;;;-4.41;100.00
29169;BME280;16219;42.864;23.360;2024-01-15T05:42:41;95125.78;;;-4.36;100.00
29169;BME280;16219;42.864;23.360;2024-01-15T05:45:08;95126.19;;;-4.27;100.00
29169;BME280;16219;42.864;23.360;2024-01-15T05:47:36;95118.84;;;-4.35;100.00
29169;BME280;16219;42.864;23.360;2024-01-15T05:50:05;95118.38;;;-4.32;100.00
29169;BME280;16219;42.864;23.360;2024-01-15T05:52:32;95111.13;;;-4.35;100.00
29169;BME280;16219;42.864;23.360;2024-01-15T05:54:59;95120.72;;;-4.31;100.00
29169;BME280;16219;42.864;23.360;2024-01-15T05:57:26;95119.94;;;-4.31;100.00
29169;BME280;16219;42.864;23.360;2024-01-15T05:59:53;95123.94;;;-4.23;100.00
29169;BME280;16219;42.864;23.360;2024-01-15T06:02:20;95120.25;;;-4.28;100.00
29169;BME280;16219;42.864;23.360;2024-01-15T06:04:47;95119.47;;;-4.28;100.00
29169;BME280;16219;42.864;23.360;2024-01-15T06:07:16;95123.59;;;-4.27;100.00
29169;BME280;16219;42.864;23.360;2024-01-15T06:09:43;95128.19;;;-4.29;100.00
29169;BME280;16219;42.864;23.360;2024-01-15T06:12:10;95132.13;;;-4.27;100.00
29169;BME280;16219;42.864;23.360;2024-01-15T06:14:38;95132.19;;;-4.21;100.00
29169;BME280;16219;42.864;23.360;2024-01-15T06:17:06;95139.91;;;-4.21;100.00
29169;BME280;16219;42.864;23.360;2024-01-15T06:19:33;95139.91;;;-4.21;100.00
29169;BME280;16219;42.864;23.360;2024-01-15T06:22:00;95130.19;;;-4.19;100.00
29169;BME280;16219;42.864;23.360;2024-01-15T06:24:29;95130.25;;;-4.31;100.00
29169;BME280;16219;42.864;23.360;2024-01-15T06:26:56;95112.91;;;-4.53;100.00
29169;BME280;16219;42.864;23.360;2024-01-15T06:29:25;95130.16;;;-4.36;100.00
29169;BME280;16219;42.864;23.360;2024-01-15T06:31:53;95123.94;;;-4.23;100.00
29169;BME280;16219;42.864;23.360;2024-01-15T06:34:20;95122.13;;;-4.23;100.00
29169;BME280;16219;42.864;23.360;2024-01-15T06:36:47;95126.19;;;-4.27;100.00
29169;BME280;16219;42.864;23.360;2024-01-15T06:39:14;95126.03;;;-4.20;100.00
29169;BME280;16219;42.864;23.360;2024-01-15T06:41:42;95129.47;;;-3.98;100.00
29169;BME280;16219;42.864;23.360;2024-01-15T06:44:10;95124.31;;;-3.81;100.00
29169;BME280;16219;42.864;23.360;2024-01-15T06:46:41;95129.44;;;-3.64;100.00
29169;BME280;16219;42.864;23.360;2024-01-15T06:49:09;95126.69;;;-3.58;100.00
29169;BME280;16219;42.864;23.360;2024-01-15T06:51:36;95133.50;;;-3.52;100.00
29169;BME280;16219;42.864;23.360;2024-01-15T06:54:03;95125.88;;;-3.41;100.00
29169;BME280;16219;42.864;23.360;2024-01-15T06:56:31;95122.34;;;-3.35;100.00
29169;BME280;16219;42.864;23.360;2024-01-15T06:58:59;95115.41;;;-3.35;100.00
29169;BME280;16219;42.864;23.360;2024-01-15T07:01:26;95126.84;;;-3.25;100.00
29169;BME280;16219;42.864;23.360;2024-01-15T07:03:53;95121.03;;;-3.16;100.00
29169;BME280;16219;42.864;23.360;2024-01-15T07:06:20;95126.56;;;-3.07;100.00
29169;BME280;16219;42.864;23.360;2024-01-15T07:08:47;95124.09;;;-2.97;100.00
29169;BME280;16219;42.864;23.360;2024-01-15T07:11:15;95123.28;;;-2.97;100.00
29169;BME280;16219;42.864;23.360;2024-01-15T07:13:42;95134.22;;;-2.90;100.00
29169;BME280;16219;42.864;23.360;2024-01-15T07:16:10;95134.22;;;-2.90;100.00
29169;BME280;16219;42.864;23.360;2024-01-15T07:18:37;95133.31;;;-2.79;100.00
29169;BME280;16219;42.864;23.360;2024-01-15T07:21:05;95121.38;;;-2.85;100.00
29169;BME280;16219;42.864;23.360;2024-01-15T07:23:32;95125.03;;;-2.81;100.00
29169;BME280;16219;42.864;23.360;2024-01-15T07:25:59;95125.03;;;-2.81;100.00
29169;BME280;16219;42.864;23.360;2024-01-15T07:28:28;95115.56;;;-2.75;100.00
29169;BME280;16219;42.864;23.360;2024-01-15T07:30:55;95119.56;;;-2.63;100.00
29169;BME280;16219;42.864;23.360;2024-01-15T07:33:24;95110.53;;;-2.60;100.00
29169;BME280;16219;42.864;23.360;2024-01-15T07:35:51;95122.13;;;-2.63;100.00
29169;BME280;16219;42.864;23.360;2024-01-15T07:38:19;95110.97;;;-2.68;100.00
29169;BME280;16219;42.864;23.360;2024-01-15T07:40:46;95114.81;;;-2.71;100.00
29169;BME280;16219;42.864;23.360;2024-01-15T07:43:15;95107.81;;;-2.75;100.00
29169;BME280;16219;42.864;23.360;2024-01-15T07:45:42;95116.63;;;-2.71;100.00
29169;BME280;16219;42.864;23.360;2024-01-15T07:48:08;95110.75;;;-2.67;100.00
29169;BME280;16219;42.864;23.360;2024-01-15T07:50:37;95122.41;;;-2.59;100.00
29169;BME280;16219;42.864;23.360;2024-01-15T07:53:04;95126.31;;;-2.57;100.00
29169;BME280;16219;42.864;23.360;2024-01-15T07:55:32;95112.09;;;-2.59;100.00
29169;BME280;16219;42.864;23.360;2024-01-15T07:57:59;95116.16;;;-2.41;100.00
29169;BME280;16219;42.864;23.360;2024-01-15T08:00:26;95108.41;;;-2.41;100.00
29169;BME280;16219;42.864;23.360;2024-01-15T08:02:53;95104.22;;;-2.42;100.00
29169;BME280;16219;42.864;23.360;2024-01-15T08:05:20;95101.75;;;-2.32;100.00
29169;BME280;16219;42.864;23.360;2024-01-15T08:07:50;95082.59;;;-2.36;100.00
29169;BME280;16219;42.864;23.360;2024-01-15T08:10:17;95074.97;;;-2.21;100.00
29169;BME280;16219;42.864;23.360;2024-01-15T08:12:45;95060.00;;;-2.51;100.00
29169;BME280;16219;42.864;23.360;2024-01-15T08:15:13;95101.31;;;-2.24;100.00
29169;BME280;16219;42.864;23.360;2024-01-15T08:17:43;95088.91;;;-2.22;100.00
29169;BME280;16219;42.864;23.360;2024-01-15T08:20:10;95094.16;;;-2.12;100.00
29169;BME280;16219;42.864;23.360;2024-01-15T08:22:39;95083.59;;;-2.05;100.00
29169;BME280;16219;42.864;23.360;2024-01-15T08:25:08;95083.91;;;-2.02;100.00
29169;BME280;16219;42.864;23.360;2024-01-15T08:27:36;95100.63;;;-1.77;100.00
29169;BME280;16219;42.864;23.360;2024-01-15T08:30:04;95104.56;;;-1.64;100.00
29169;BME280;16219;42.864;23.360;2024-01-15T08:32:32;95113.09;;;-1.64;100.00
29169;BME280;16219;42.864;23.360;2024-01-15T08:34:59;95100.78;;;-1.46;100.00
29169;BME280;16219;42.864;23.360;2024-01-15T08:37:26;95112.69;;;-1.40;100.00
29169;BME280;16219;42.864;23.360;2024-01-15T08:39:53;95094.72;;;-1.15;100.00
29169;BME280;16219;42.864;23.360;2024-01-15T08:42:22;95110.19;;;-1.25;100.00
29169;BME280;16219;42.864;23.360;2024-01-15T08:44:50;95079.72;;;-1.08;100.00
29169;BME280;16219;42.864;23.360;2024-01-15T08:47:17;95081.56;;;-1.03;100.00
29169;BME280;16219;42.864;23.360;2024-01-15T08:49:44;95083.44;;;-0.88;100.00
29169;BME280;16219;42.864;23.360;2024-01-15T08:52:12;95080.06;;;-0.79;100.00
29169;BME280;16219;42.864;23.360;2024-01-15T08:54:39;95069.50;;;-0.62;100.00
29169;BME280;16219;42.864;23.360;2024-01-15T08:57:06;95067.94;;;-0.53;100.00
29169;BME280;16219;42.864;23.360;2024-01-15T08:59:35;95065.88;;;-0.45;100.00
29169;BME280;16219;42.864;23.360;2024-01-15T09:02:02;95061.22;;;-0.43;100.00
29169;BME280;16219;42.864;23.360;2024-01-15T09:04:29;95058.13;;;-0.45;100.00
29169;BME280;16219;42.864;23.360;2024-01-15T09:06:56;95042.56;;;-0.40;100.00
29169;BME280;16219;42.864;23.360;2024-01-15T09:09:23;95037.88;;;-0.38;100.00
29169;BME280;16219;42.864;23.360;2024-01-15T09:11:51;95035.03;;;-0.27;100.00
29169;BME280;16219;42.864;23.360;2024-01-15T09:14:18;95025.44;;;-0.26;100.00
29169;BME280;16219;42.864;23.360;2024-01-15T09:16:48;95012.50;;;-0.21;100.00
29169;BME280;16219;42.864;23.360;2024-01-15T09:19:15;95011.44;;;-0.15;100.00
29169;BME280;16219;42.864;23.360;2024-01-15T09:21:42;95005.72;;;-0.02;100.00
29169;BME280;16219;42.864;23.360;2024-01-15T09:24:09;95008.31;;;-0.02;100.00
29169;BME280;16219;42.864;23.360;2024-01-15T09:26:36;94995.88;;;-0.05;100.00
29169;BME280;16219;42.864;23.360;2024-01-15T09:29:03;94986.28;;;0.06;100.00
29169;BME280;16219;42.864;23.360;2024-01-15T09:31:30;94996.41;;;-0.03;100.00
29169;BME280;16219;42.864;23.360;2024-01-15T09:33:59;94982.63;;;0.07;100.00
29169;BME280;16219;42.864;23.360;2024-01-15T09:36:27;94982.31;;;0.34;100.00
29169;BME280;16219;42.864;23.360;2024-01-15T09:38:55;94992.91;;;0.43;100.00
29169;BME280;16219;42.864;23.360;2024-01-15T09:41:22;94992.69;;;0.34;100.00
29169;BME280;16219;42.864;23.360;2024-01-15T09:43:49;94981.97;;;0.51;100.00
29169;BME280;16219;42.864;23.360;2024-01-15T09:46:16;94980.66;;;0.54;100.00
29169;BME280;16219;42.864;23.360;2024-01-15T09:48:44;94974.97;;;0.46;100.00
29169;BME280;16219;42.864;23.360;2024-01-15T09:51:12;94961.53;;;0.39;100.00
29169;BME280;16219;42.864;23.360;2024-01-15T09:53:41;94949.28;;;0.50;100.00
29169;BME280;16219;42.864;23.360;2024-01-15T09:56:10;94940.63;;;0.70;100.00
29169;BME280;16219;42.864;23.360;2024-01-15T09:58:38;94963.13;;;0.80;100.00
29169;BME280;16219;42.864;23.360;2024-01-15T10:01:07;94951.53;;;1.11;100.00
29169;BME280;16219;42.864;23.360;2024-01-15T10:03:35;94947.22;;;1.31;100.00
29169;BME280;16219;42.864;23.360;2024-01-15T10:06:04;94938.50;;;1.50;100.00
29169;BME280;16219;42.864;23.360;2024-01-15T10:08:34;94933.94;;;1.66;100.00
29169;BME280;16219;42.864;23.360;2024-01-15T10:11:03;94926.53;;;1.79;100.00
29169;BME280;16219;42.864;23.360;2024-01-15T10:13:30;94922.00;;;1.89;100.00
29169;BME280;16219;42.864;23.360;2024-01-15T10:15:57;94909.13;;;1.74;100.00
29169;BME280;16219;42.864;23.360;2024-01-15T10:18:25;94902.50;;;1.87;100.00
29169;BME280;16219;42.864;23.360;2024-01-15T10:20:52;94901.06;;;1.99;100.00
29169;BME280;16219;42.864;23.360;2024-01-15T10:23:19;94902.03;;;2.09;100.00
29169;BME280;16219;42.864;23.360;2024-01-15T10:25:48;94896.00;;;2.13;100.00
29169;BME280;16219;42.864;23.360;2024-01-15T10:28:14;94892.31;;;2.14;100.00
29169;BME280;16219;42.864;23.360;2024-01-15T10:30:41;94900.06;;;2.19;100.00
29169;BME280;16219;42.864;23.360;2024-01-15T10:33:08;94895.53;;;2.30;100.00
29169;BME280;16219;42.864;23.360;2024-01-15T10:35:36;94891.25;;;2.39;100.00
29169;BME280;16219;42.864;23.360;2024-01-15T10:38:03;94879.78;;;2.40;100.00
29169;BME280;16219;42.864;23.360;2024-01-15T10:40:32;94873.16;;;2.48;100.00
29169;BME280;16219;42.864;23.360;2024-01-15T10:43:00;94867.56;;;2.60;100.00
29169;BME280;16219;42.864;23.360;2024-01-15T10:45:28;94873.88;;;2.54;100.00
29169;BME280;16219;42.864;23.360;2024-01-15T10:47:56;94855.22;;;2.65;100.00
29169;BME280;16219;42.864;23.360;2024-01-15T10:50:24;94857.09;;;2.97;100.00
29169;BME280;16219;42.864;23.360;2024-01-15T10:52:52;94868.44;;;3.20;100.00
29169;BME280;16219;42.864;23.360;2024-01-15T10:55:20;94861.81;;;3.28;100.00
29169;BME280;16219;42.864;23.360;2024-01-15T10:57:48;94858.47;;;3.41;100.00
29169;BME280;16219;42.864;23.360;2024-01-15T11:00:17;94852.03;;;3.53;100.00
29169;BME280;16219;42.864;23.360;2024-01-15T11:02:46;94840.06;;;3.65;100.00
29169;BME280;16219;42.864;23.360;2024-01-15T11:05:13;94824.97;;;3.76;100.00
29169;BME280;16219;42.864;23.360;2024-01-15T11:07:43;94830.19;;;3.90;100.00
29169;BME280;16219;42.864;23.360;2024-01-15T11:10:38;94830.19;;;4.04;100.00
29169;BME280;16219;42.864;23.360;2024-01-15T11:13:05;94818.75;;;4.13;100.00
29169;BME280;16219;42.864;23.360;2024-01-15T11:15:57;94820.00;;;4.30;100.00
29169;BME280;16219;42.864;23.360;2024-01-15T11:18:27;94808.94;;;4.46;100.00
29169;BME280;16219;42.864;23.360;2024-01-15T11:21:21;94803.47;;;4.57;100.00
29169;BME280;16219;42.864;23.360;2024-01-15T11:23:53;94793.78;;;4.80;100.00
29169;BME280;16219;42.864;23.360;2024-01-15T11:26:33;94791.06;;;4.85;96.90
29169;BME280;16219;42.864;23.360;2024-01-15T11:29:02;94780.78;;;4.88;96.23
29169;BME280;16219;42.864;23.360;2024-01-15T11:34:57;94786.53;;;5.30;91.92
29169;BME280;16219;42.864;23.360;2024-01-15T11:37:26;94777.16;;;5.29;92.26
29169;BME280;16219;42.864;23.360;2024-01-15T11:39:54;94750.00;;;5.08;94.36
29169;BME280;16219;42.864;23.360;2024-01-15T11:42:22;94777.75;;;5.26;93.17
29169;BME280;16219;42.864;23.360;2024-01-15T11:44:49;94775.50;;;5.33;93.42
29169;BME280;16219;42.864;23.360;2024-01-15T11:47:26;94774.91;;;5.36;88.96
29169;BME280;16219;42.864;23.360;2024-01-15T11:50:00;94780.28;;;5.40;87.22
29169;BME280;16219;42.864;23.360;2024-01-15T11:52:36;94773.84;;;5.46;87.50
29169;BME280;16219;42.864;23.360;2024-01-15T11:55:16;94771.53;;;5.44;88.48
29169;BME280;16219;42.864;23.360;2024-01-15T11:57:46;94763.63;;;5.27;88.51
29169;BME280;16219;42.864;23.360;2024-01-15T12:00:16;94758.28;;;5.41;85.18
29169;BME280;16219;42.864;23.360;2024-01-15T12:02:45;94749.56;;;5.54;82.22
29169;BME280;16219;42.864;23.360;2024-01-15T12:05:14;94753.47;;;5.65;82.08
29169;BME280;16219;42.864;23.360;2024-01-15T12:07:42;94757.16;;;5.73;81.44
29169;BME280;16219;42.864;23.360;2024-01-15T12:10:09;94743.31;;;5.81;80.83
29169;BME280;16219;42.864;23.360;2024-01-15T12:12:52;94737.97;;;5.86;80.28
29169;BME280;16219;42.864;23.360;2024-01-15T12:15:21;94736.09;;;5.87;82.12
29169;BME280;16219;42.864;23.360;2024-01-15T12:17:49;94725.47;;;5.83;81.82
29169;BME280;16219;42.864;23.360;2024-01-15T12:20:18;94734.06;;;5.75;83.14
29169;BME280;16219;42.864;23.360;2024-01-15T12:22:46;94737.91;;;5.69;83.78
29169;BME280;16219;42.864;23.360;2024-01-15T12:25:13;94738.53;;;5.66;83.64
29169;BME280;16219;42.864;23.360;2024-01-15T12:27:40;94738.16;;;5.50;89.00
29169;BME280;16219;42.864;23.360;2024-01-15T12:30:11;94735.97;;;5.43;89.27
29169;BME280;16219;42.864;23.360;2024-01-15T12:32:38;94725.66;;;5.38;90.97
29169;BME280;16219;42.864;23.360;2024-01-15T12:35:06;94712.72;;;5.33;89.89
29169;BME280;16219;42.864;23.360;2024-01-15T12:37:35;94718.56;;;5.30;92.56
29169;BME280;16219;42.864;23.360;2024-01-15T12:40:02;94715.16;;;5.30;94.27
29169;BME280;16219;42.864;23.360;2024-01-15T12:42:30;94713.31;;;5.30;95.43
29169;BME280;16219;42.864;23.360;2024-01-15T12:44:57;94702.25;;;5.33;96.48
29169;BME280;16219;42.864;23.360;2024-01-15T12:47:25;94696.88;;;5.38;96.60
29169;BME280;16219;42.864;23.360;2024-01-15T12:49:52;94691.66;;;5.38;97.29